Alpha, Illinois
Current Conditions -  °F | °C
As of 2:52 AM on Monday 24 Nov 2014 (Local Time) from KMLI Reporting Station
Overcast Overcast  
Wind Chill: 29°   Ceiling: 900
Heat Index: 39°   Visibility: 7mi
Dew Point: 36°   Wind: 21mph
Humidity: 89%   Direction: 300°WNW
Pressure: 29.18"   Gusts: 28mph
Location:  41.19°N, 90.38°W
Report Text: KMLI 240852Z AUTO 30018G24KT 7SM OVC009 04/02 A2918 RMK AO2 PK WND 31027/0827 SLP883 T00390022 53010 $
Loading
Personal Weather Stations






























Interactive Weather Map New forecast layout! Learn more

10-Day Weather Forecast

Advertisements
Track Severe Weather on mobile